Time;durP1;ratioP1;P1;durP2;ratioP2;P2;SDS_P1;SDS_P2;PMS_P1;PMS_P2;Temp;Humidity;BMP_temperature;BMP_pressure;BME280_temperature;BME280_humidity;BME280_pressure;Samples;Min_cycle;Max_cycle;Signal;HPM_P1;HPM_P2
2022/10/19 00:02:09;;;;;;;9.93;2.28;;;;;;;10.74;100.00;101846.28;5224693;28;20021;-79
2022/10/19 00:04:39;;;;;;;12.70;2.20;;;;;;;10.81;100.00;101838.31;5225172;28;20346;-78
2022/10/19 00:07:09;;;;;;;9.98;2.42;;;;;;;10.81;100.00;101850.50;5223516;28;20056;-78
2022/10/19 00:09:42;;;;;;;10.18;2.58;;;;;;;10.73;100.00;101855.00;5224712;28;20029;-78
2022/10/19 00:12:12;;;;;;;9.65;2.38;;;;;;;10.70;100.00;101847.22;5225696;28;20041;-78
2022/10/19 00:14:43;;;;;;;10.27;2.35;;;;;;;10.78;100.00;101850.56;5224958;28;20036;-78
2022/10/19 00:17:13;;;;;;;8.02;2.65;;;;;;;10.69;100.00;101848.94;5225156;28;20033;-78
2022/10/19 00:19:43;;;;;;;10.27;2.55;;;;;;;10.74;100.00;101846.28;5224791;28;20029;-78
2022/10/19 00:22:14;;;;;;;7.72;2.22;;;;;;;10.81;100.00;101850.50;5224744;28;20108;-78
2022/10/19 00:24:45;;;;;;;8.68;2.42;;;;;;;10.90;100.00;101847.75;5216503;28;20031;-78
2022/10/19 00:27:15;;;;;;;14.70;2.50;;;;;;;10.94;100.00;101859.88;5221294;28;20310;-78
2022/10/19 00:29:45;;;;;;;6.82;2.35;;;;;;;10.99;100.00;101855.47;5223627;28;20040;-78
2022/10/19 00:32:16;;;;;;;15.57;2.45;;;;;;;10.95;100.00;101852.03;5224804;28;20305;-77
2022/10/19 00:34:46;;;;;;;11.43;2.30;;;;;;;11.00;100.00;101857.19;5224436;28;20025;-78
2022/10/19 00:37:16;;;;;;;11.07;3.22;;;;;;;11.03;100.00;101858.84;5223617;28;20032;-78
2022/10/19 00:39:46;;;;;;;12.38;2.70;;;;;;;11.07;100.00;101864.91;5223252;28;20538;-77
2022/10/19 00:42:17;;;;;;;9.63;2.30;;;;;;;11.12;100.00;101868.28;5224687;28;20027;-78
2022/10/19 00:44:47;;;;;;;5.68;1.73;;;;;;;11.29;100.00;101869.72;5224084;28;20108;-78
2022/10/19 00:47:21;;;;;;;13.40;2.03;;;;;;;11.30;100.00;101862.75;5223206;28;20050;-78
2022/10/19 00:49:53;;;;;;;11.90;2.00;;;;;;;11.33;100.00;101867.91;5220349;28;20668;-78
2022/10/19 00:52:25;;;;;;;8.75;1.67;;;;;;;11.33;100.00;101862.69;5223664;28;20033;-78
2022/10/19 00:54:58;;;;;;;11.50;1.77;;;;;;;11.31;100.00;101870.53;5221784;28;20025;-78
2022/10/19 00:57:30;;;;;;;10.02;1.60;;;;;;;11.40;100.00;101865.16;5223430;28;20029;-78
2022/10/19 01:00:04;;;;;;;13.20;2.38;;;;;;;11.51;100.00;101860.59;5224258;28;20104;-78
2022/10/19 01:02:35;;;;;;;7.22;1.88;;;;;;;11.57;100.00;101864.88;5222476;28;20029;-78
2022/10/19 01:05:06;;;;;;;8.52;1.80;;;;;;;11.51;100.00;101854.47;5222491;28;20143;-78
2022/10/19 01:07:36;;;;;;;10.43;1.80;;;;;;;11.56;100.00;101856.16;5223018;28;20033;-78
2022/10/19 01:10:08;;;;;;;6.55;1.35;;;;;;;11.47;100.00;101856.28;5223868;28;20083;-78
2022/10/19 01:13:03;;;;;;;10.20;2.00;;;;;;;11.57;100.00;101850.03;5222621;28;20526;-78
2022/10/19 01:15:55;;;;;;;11.52;2.22;;;;;;;11.44;100.00;101851.13;5223132;28;20028;-78
2022/10/19 01:18:40;;;;;;;9.23;1.83;;;;;;;11.45;100.00;101844.97;5204008;28;20056;-78
2022/10/19 01:21:24;;;;;;;8.30;1.85;;;;;;;11.60;100.00;101852.59;5223185;28;20029;-78
2022/10/19 01:24:29;;;;;;;9.43;1.98;;;;;;;11.62;100.00;101840.31;5222370;28;20033;-78
2022/10/19 01:27:27;;;;;;;7.30;2.00;;;;;;;11.58;100.00;101833.44;5223145;28;20112;-77
2022/10/19 01:30:41;;;;;;;9.38;1.75;;;;;;;11.54;100.00;101826.50;5223776;28;20078;-78
2022/10/19 01:33:23;;;;;;;9.15;1.67;;;;;;;11.57;100.00;101828.22;5211642;28;20048;-78
2022/10/19 01:36:01;;;;;;;7.30;1.73;;;;;;;11.69;100.00;101838.44;5221498;28;20093;-79
2022/10/19 01:38:44;;;;;;;8.07;1.77;;;;;;;11.55;100.00;101843.94;5248831;22;20167;-72
2022/10/19 01:41:20;;;;;;;7.80;1.40;;;;;;;11.72;100.00;101841.00;5259992;28;20155;-73
2022/10/19 01:44:02;;;;;;;11.52;1.92;;;;;;;11.50;100.00;101840.53;5260587;28;20488;-73
2022/10/19 01:46:36;;;;;;;10.60;2.35;;;;;;;11.73;100.00;101843.59;5259635;28;20032;-73
2022/10/19 01:49:20;;;;;;;7.13;1.42;;;;;;;11.75;100.00;101839.19;5234543;28;20032;-72
2022/10/19 01:51:58;;;;;;;9.13;1.60;;;;;;;11.62;100.00;101848.19;5241782;28;20031;-73
2022/10/19 01:54:34;;;;;;;7.60;1.40;;;;;;;11.65;100.00;101839.41;5239653;28;20071;-72
2022/10/19 01:57:08;;;;;;;9.98;1.30;;;;;;;11.61;100.00;101832.50;5239707;28;20028;-72
2022/10/19 01:59:38;;;;;;;11.90;1.90;;;;;;;11.68;100.00;101850.69;5241519;28;20034;-73
2022/10/19 02:02:10;;;;;;;8.30;1.48;;;;;;;11.68;100.00;101837.59;5241818;28;20486;-73
2022/10/19 02:04:41;;;;;;;10.82;1.40;;;;;;;11.73;100.00;101837.47;5239394;28;20469;-73
2022/10/19 02:07:12;;;;;;;7.45;1.30;;;;;;;11.71;100.00;101834.91;5240017;28;20457;-72
2022/10/19 02:09:42;;;;;;;6.38;1.40;;;;;;;11.57;100.00;101830.81;5240971;28;20043;-73
2022/10/19 02:12:14;;;;;;;8.98;1.70;;;;;;;11.68;100.00;101826.25;5241777;28;20028;-73
2022/10/19 02:14:49;;;;;;;7.93;1.35;;;;;;;11.70;100.00;101830.56;5241918;28;20474;-73
2022/10/19 02:17:25;;;;;;;6.03;1.35;;;;;;;11.68;100.00;101826.25;5241127;28;20107;-73
2022/10/19 02:19:56;;;;;;;6.22;1.50;;;;;;;11.70;100.00;101832.31;5241113;28;20016;-73
2022/10/19 02:22:27;;;;;;;10.07;1.60;;;;;;;11.78;100.00;101828.66;5241630;28;20440;-73
2022/10/19 02:24:58;;;;;;;6.55;1.40;;;;;;;11.71;100.00;101836.66;5240484;28;20028;-73
2022/10/19 02:27:28;;;;;;;7.40;1.45;;;;;;;11.63;100.00;101842.03;5241133;28;20093;-73
2022/10/19 02:29:59;;;;;;;8.60;1.80;;;;;;;11.72;100.00;101843.63;5223252;28;20067;-73
2022/10/19 02:32:29;;;;;;;8.43;2.10;;;;;;;11.69;100.00;101831.47;5241570;28;20714;-73
2022/10/19 02:34:59;;;;;;;4.30;1.10;;;;;;;11.63;100.00;101833.34;5240373;28;20032;-73
2022/10/19 02:37:30;;;;;;;7.18;1.50;;;;;;;11.59;100.00;101837.78;5241100;28;20078;-72
2022/10/19 02:40:01;;;;;;;7.57;1.55;;;;;;;11.79;100.00;101840.84;5240565;28;20116;-73
2022/10/19 02:42:37;;;;;;;7.47;1.40;;;;;;;11.64;100.00;101827.22;5241321;28;20093;-73
2022/10/19 02:45:31;;;;;;;7.78;1.17;;;;;;;11.52;100.00;101838.75;5242025;28;20082;-73
2022/10/19 02:48:06;;;;;;;9.38;1.85;;;;;;;11.67;100.00;101832.38;5238643;28;20123;-73
2022/10/19 02:50:36;;;;;;;6.63;1.45;;;;;;;11.65;100.00;101828.94;5241545;28;20036;-73
2022/10/19 02:53:07;;;;;;;5.38;1.30;;;;;;;11.58;100.00;101843.91;5240903;28;20497;-72
2022/10/19 02:55:37;;;;;;;6.95;1.40;;;;;;;11.74;100.00;101845.31;5241325;28;20039;-73
2022/10/19 02:58:08;;;;;;;6.45;1.30;;;;;;;11.79;100.00;101846.09;5222471;28;21113;-72
2022/10/19 03:00:38;;;;;;;5.25;1.33;;;;;;;11.85;100.00;101843.38;5239758;28;20059;-73
2022/10/19 03:03:09;;;;;;;6.38;1.30;;;;;;;11.84;100.00;101854.72;5241711;28;20037;-73
2022/10/19 03:05:39;;;;;;;7.95;1.30;;;;;;;11.85;100.00;101851.22;5244231;28;20426;-73
2022/10/19 03:08:10;;;;;;;6.40;1.27;;;;;;;11.88;100.00;101858.13;5244487;28;20032;-73
2022/10/19 03:10:40;;;;;;;7.30;1.30;;;;;;;11.92;100.00;101860.66;5245264;28;20099;-73
2022/10/19 03:13:10;;;;;;;4.40;1.33;;;;;;;11.89;100.00;101857.22;5244868;28;20043;-72
2022/10/19 03:15:41;;;;;;;8.02;1.38;;;;;;;11.92;100.00;101858.03;5245057;28;20028;-73
2022/10/19 03:18:11;;;;;;;6.88;1.17;;;;;;;11.84;100.00;101849.50;5244731;28;20035;-73
2022/10/19 03:20:41;;;;;;;7.03;1.42;;;;;;;11.79;100.00;101850.47;5245298;28;20028;-73
2022/10/19 03:23:11;;;;;;;8.18;1.38;;;;;;;11.79;100.00;101853.09;5244654;28;20116;-73
2022/10/19 03:25:42;;;;;;;9.88;1.42;;;;;;;11.78;100.00;101859.22;5245047;28;20024;-73
2022/10/19 03:28:12;;;;;;;6.32;1.20;;;;;;;11.78;100.00;101856.63;5244147;28;20032;-73
2022/10/19 03:30:42;;;;;;;8.77;1.45;;;;;;;11.75;100.00;101856.69;5244932;28;20031;-73
2022/10/19 03:33:12;;;;;;;5.50;1.10;;;;;;;11.75;100.00;101865.38;5244602;28;20032;-73
2022/10/19 03:35:43;;;;;;;8.02;1.30;;;;;;;11.78;100.00;101865.31;5243991;28;20071;-73
2022/10/19 03:38:13;;;;;;;8.85;1.40;;;;;;;11.87;100.00;101865.16;5243789;28;20021;-73
2022/10/19 03:40:43;;;;;;;8.60;1.55;;;;;;;11.83;100.00;101873.09;5244896;28;20443;-73
2022/10/19 03:43:13;;;;;;;6.63;1.60;;;;;;;11.89;100.00;101875.56;5244748;28;20035;-73
2022/10/19 03:45:47;;;;;;;5.70;1.45;;;;;;;11.91;100.00;101866.81;5245064;28;20428;-72
2022/10/19 03:48:17;;;;;;;9.25;1.45;;;;;;;11.86;100.00;101876.53;5244005;28;20039;-72
2022/10/19 03:50:47;;;;;;;8.43;1.73;;;;;;;11.90;100.00;101872.06;5244225;28;20474;-73
2022/10/19 03:53:17;;;;;;;5.80;1.30;;;;;;;11.73;100.00;101872.41;5243553;28;20027;-72
2022/10/19 03:55:48;;;;;;;7.85;1.42;;;;;;;11.64;100.00;101869.09;5244075;28;20056;-73
2022/10/19 03:58:18;;;;;;;5.57;1.25;;;;;;;11.70;100.00;101868.97;5243376;28;20421;-72
2022/10/19 04:00:48;;;;;;;7.78;1.40;;;;;;;11.72;100.00;101869.81;5243026;28;20024;-73
2022/10/19 04:03:18;;;;;;;7.80;1.45;;;;;;;11.77;100.00;101865.38;5243854;28;20193;-72
2022/10/19 04:05:49;;;;;;;8.45;1.23;;;;;;;11.57;100.00;101865.75;5244260;28;20031;-73
2022/10/19 04:08:19;;;;;;;7.57;1.27;;;;;;;11.60;100.00;101863.06;5225462;28;20120;-73
2022/10/19 04:10:49;;;;;;;7.13;1.45;;;;;;;11.72;100.00;101862.84;5244155;28;20028;-73
2022/10/19 04:13:19;;;;;;;6.78;1.30;;;;;;;11.83;100.00;101880.94;5244232;28;20032;-72
2022/10/19 04:15:50;;;;;;;10.85;1.73;;;;;;;11.68;100.00;101876.88;5225255;28;20115;-73
2022/10/19 04:18:20;;;;;;;7.95;1.50;;;;;;;11.65;100.00;101869.06;5243989;28;20381;-73
2022/10/19 04:20:57;;;;;;;8.27;1.60;;;;;;;11.76;100.00;101882.81;5243696;28;20025;-73
2022/10/19 04:23:31;;;;;;;7.88;1.77;;;;;;;11.79;100.00;101880.13;5243627;28;20032;-72
2022/10/19 04:26:06;;;;;;;7.97;1.38;;;;;;;11.61;100.00;101879.66;5244173;28;20082;-72
2022/10/19 04:28:37;;;;;;;8.20;1.70;;;;;;;11.44;100.00;101882.53;5243869;28;20032;-73
2022/10/19 04:31:07;;;;;;;6.65;1.63;;;;;;;11.52;100.00;101875.41;5244130;28;20077;-73
2022/10/19 04:33:38;;;;;;;8.20;1.58;;;;;;;11.56;100.00;101884.09;5243381;28;20065;-73
2022/10/19 04:36:10;;;;;;;7.22;1.50;;;;;;;11.57;100.00;101881.44;5243937;28;20032;-73
2022/10/19 04:38:41;;;;;;;6.78;1.40;;;;;;;11.56;100.00;101879.72;5225443;28;20508;-73
2022/10/19 04:41:14;;;;;;;9.48;2.13;;;;;;;11.50;100.00;101882.44;5244169;28;20024;-72
2022/10/19 04:43:45;;;;;;;7.93;1.48;;;;;;;11.53;100.00;101878.88;5244673;28;20277;-73
2022/10/19 04:46:18;;;;;;;8.20;1.60;;;;;;;11.48;100.00;101884.19;5243844;28;20402;-72
2022/10/19 04:48:49;;;;;;;8.52;1.40;;;;;;;11.49;100.00;101885.94;5242787;28;20029;-73
2022/10/19 04:51:20;;;;;;;10.15;1.50;;;;;;;11.53;100.00;101892.84;5243490;28;20032;-73
2022/10/19 04:53:50;;;;;;;8.82;1.70;;;;;;;11.57;100.00;101889.31;5243452;28;20035;-73
2022/10/19 04:56:25;;;;;;;7.25;1.48;;;;;;;11.62;100.00;101887.44;5243166;28;20041;-73
2022/10/19 04:58:57;;;;;;;5.22;1.40;;;;;;;11.87;100.00;101896.59;5243749;28;20389;-73
2022/10/19 05:01:29;;;;;;;6.80;1.50;;;;;;;11.85;100.00;101885.28;5243502;28;20037;-72
2022/10/19 05:04:01;;;;;;;9.40;1.70;;;;;;;11.73;100.00;101890.75;5242363;28;20054;-72
2022/10/19 05:06:31;;;;;;;11.25;1.52;;;;;;;11.64;100.00;101890.06;5225417;28;20033;-73
2022/10/19 05:09:02;;;;;;;8.70;1.80;;;;;;;11.70;100.00;101890.81;5242831;28;20095;-73
2022/10/19 05:11:32;;;;;;;9.60;1.70;;;;;;;11.46;100.00;101901.69;5243228;28;20028;-73
2022/10/19 05:14:03;;;;;;;6.72;1.50;;;;;;;11.55;100.00;101898.03;5243489;28;20115;-73
2022/10/19 05:16:33;;;;;;;8.55;1.80;;;;;;;11.50;100.00;101892.91;5241725;28;20440;-73
2022/10/19 05:19:03;;;;;;;6.88;1.73;;;;;;;11.58;100.00;101896.25;5242305;28;20406;-73
2022/10/19 05:21:34;;;;;;;5.20;1.52;;;;;;;11.52;100.00;101893.75;5242870;28;20253;-73
2022/10/19 05:24:04;;;;;;;6.75;1.60;;;;;;;11.69;100.00;101882.97;5243444;28;20123;-72
2022/10/19 05:26:34;;;;;;;7.68;1.40;;;;;;;11.63;100.00;101883.09;5240990;28;20025;-72
2022/10/19 05:29:05;;;;;;;12.90;2.03;;;;;;;11.65;100.00;101891.78;5242206;28;20027;-73
2022/10/19 05:31:35;;;;;;;8.30;1.95;;;;;;;11.75;100.00;101883.72;5242491;28;20094;-72
2022/10/19 05:34:05;;;;;;;11.20;2.28;;;;;;;11.59;100.00;101889.28;5242862;28;20063;-73
2022/10/19 05:36:38;;;;;;;8.55;1.77;;;;;;;11.65;100.00;101887.38;5241007;28;20028;-73
2022/10/19 05:39:13;;;;;;;14.50;2.30;;;;;;;11.62;100.00;101882.22;5249502;28;20033;-73
2022/10/19 05:41:44;;;;;;;10.20;1.85;;;;;;;11.65;100.00;101889.16;5243203;28;20108;-73
2022/10/19 05:44:20;;;;;;;11.88;1.80;;;;;;;11.56;100.00;101891.94;5243029;28;20028;-73
2022/10/19 05:46:50;;;;;;;4.95;1.30;;;;;;;11.53;100.00;101884.13;5237270;28;20021;-73
2022/10/19 05:49:21;;;;;;;10.43;1.92;;;;;;;11.52;100.00;101888.50;5236520;28;20093;-72
2022/10/19 05:51:52;;;;;;;8.90;1.40;;;;;;;11.50;100.00;101881.56;5239970;28;20059;-73
2022/10/19 05:54:22;;;;;;;9.88;1.90;;;;;;;11.64;100.00;101882.19;5242041;28;20115;-72
2022/10/19 05:56:52;;;;;;;4.88;1.30;;;;;;;11.78;100.00;101888.88;5240681;28;20035;-73
2022/10/19 05:59:23;;;;;;;9.93;1.90;;;;;;;11.77;100.00;101894.19;5241454;28;20106;-72
2022/10/19 06:01:53;;;;;;;10.23;1.92;;;;;;;11.72;100.00;101896.00;5241140;28;20016;-72
2022/10/19 06:04:24;;;;;;;4.15;1.23;;;;;;;11.80;100.00;101896.72;5242104;28;20123;-73
2022/10/19 06:06:54;;;;;;;9.35;1.77;;;;;;;11.66;100.00;101903.97;5240993;28;20028;-72
2022/10/19 06:09:24;;;;;;;9.05;1.75;;;;;;;11.53;100.00;101903.31;5239656;28;20052;-73
2022/10/19 06:11:55;;;;;;;8.48;1.70;;;;;;;11.54;100.00;101907.66;5223066;28;20106;-72
2022/10/19 06:14:25;;;;;;;8.18;1.38;;;;;;;11.65;100.00;101899.63;5240885;28;20032;-73
2022/10/19 06:16:55;;;;;;;6.85;1.67;;;;;;;11.66;100.00;101893.50;5240066;28;20110;-73
2022/10/19 06:19:25;;;;;;;7.18;1.40;;;;;;;11.70;100.00;101897.78;5240732;28;20402;-73
2022/10/19 06:21:56;;;;;;;9.32;1.80;;;;;;;11.63;100.00;101904.03;5241677;28;20427;-73
2022/10/19 06:24:26;;;;;;;7.75;1.60;;;;;;;11.67;100.00;101911.81;5240302;28;20219;-72
2022/10/19 06:26:56;;;;;;;8.98;1.70;;;;;;;11.72;100.00;101902.13;5241469;28;20075;-73
2022/10/19 06:29:27;;;;;;;5.60;1.27;;;;;;;11.74;100.00;101902.06;5241433;28;20033;-72
2022/10/19 06:31:59;;;;;;;8.18;1.65;;;;;;;11.86;100.00;101902.72;5241429;28;20024;-73
2022/10/19 06:34:29;;;;;;;9.10;1.75;;;;;;;11.93;100.00;101914.78;5239525;28;20028;-72
2022/10/19 06:36:59;;;;;;;8.88;1.65;;;;;;;12.05;100.00;101908.44;5240360;28;20504;-73
2022/10/19 06:39:29;;;;;;;9.23;1.65;;;;;;;11.99;100.00;101906.78;5240535;28;20025;-72
2022/10/19 06:42:00;;;;;;;5.95;1.50;;;;;;;11.92;100.00;101915.69;5222043;28;20025;-73
2022/10/19 06:44:30;;;;;;;7.68;1.67;;;;;;;12.11;100.00;101917.03;5240469;28;20040;-73
2022/10/19 06:47:00;;;;;;;7.13;1.45;;;;;;;11.97;100.00;101911.22;5241016;28;20029;-73
2022/10/19 06:49:31;;;;;;;8.95;1.60;;;;;;;11.94;100.00;101916.50;5241067;28;20047;-73
2022/10/19 06:52:02;;;;;;;7.75;2.00;;;;;;;12.04;100.00;101911.94;5240819;28;20508;-73
2022/10/19 06:54:32;;;;;;;7.10;1.63;;;;;;;12.08;100.00;101911.88;5240422;28;20040;-73
2022/10/19 06:57:02;;;;;;;9.45;1.92;;;;;;;12.26;100.00;101924.59;5241221;28;20393;-73
2022/10/19 06:59:33;;;;;;;10.75;1.75;;;;;;;12.08;100.00;101922.34;5223339;28;20063;-73
2022/10/19 07:02:03;;;;;;;6.97;1.50;;;;;;;12.25;100.00;101919.38;5240364;28;20020;-73
2022/10/19 07:04:34;;;;;;;10.07;1.73;;;;;;;12.38;100.00;101916.47;5241185;28;20032;-73
2022/10/19 07:07:04;;;;;;;5.60;1.48;;;;;;;12.49;100.00;101927.56;5240884;28;20034;-73
2022/10/19 07:09:34;;;;;;;7.80;1.30;;;;;;;12.64;100.00;101927.25;5241278;28;20403;-73
2022/10/19 07:12:05;;;;;;;10.50;1.75;;;;;;;12.55;100.00;101932.72;5241820;28;20570;-73
2022/10/19 07:14:38;;;;;;;9.10;1.75;;;;;;;12.75;100.00;101935.75;5241244;28;20032;-72
2022/10/19 07:17:10;;;;;;;7.72;1.38;;;;;;;12.69;100.00;101943.75;5240717;28;20043;-73
2022/10/19 07:19:41;;;;;;;7.00;1.50;;;;;;;12.68;100.00;101938.53;5239855;28;20029;-73
2022/10/19 07:22:11;;;;;;;6.57;1.15;;;;;;;12.58;100.00;101948.38;5222751;28;20401;-73
2022/10/19 07:24:41;;;;;;;4.32;1.00;;;;;;;12.75;100.00;101951.47;5240606;28;20033;-73
2022/10/19 07:27:12;;;;;;;7.75;1.20;;;;;;;12.88;100.00;101945.06;5240693;28;20511;-73
2022/10/19 07:29:42;;;;;;;8.55;1.55;;;;;;;12.99;100.00;101940.44;5239467;28;20032;-72
2022/10/19 07:32:12;;;;;;;5.22;1.10;;;;;;;13.02;100.00;101946.50;5240382;28;20040;-73
2022/10/19 07:34:43;;;;;;;5.85;1.42;;;;;;;13.04;100.00;101943.84;5240825;28;20032;-73
2022/10/19 07:37:13;;;;;;;5.72;1.15;;;;;;;13.07;100.00;101947.25;5239967;28;20043;-72
2022/10/19 07:39:43;;;;;;;6.63;1.10;;;;;;;13.19;100.00;101959.19;5223429;28;20028;-73
2022/10/19 07:42:13;;;;;;;10.40;1.25;;;;;;;13.00;100.00;101963.16;5241187;28;20107;-73
2022/10/19 07:44:44;;;;;;;9.23;1.30;;;;;;;13.07;100.00;101954.28;5240313;28;20020;-73
2022/10/19 07:47:14;;;;;;;9.23;1.30;;;;;;;13.06;100.00;101957.78;5239116;28;20037;-73
2022/10/19 07:49:44;;;;;;;8.98;1.40;;;;;;;13.04;100.00;101954.34;5240017;28;20025;-73
2022/10/19 07:52:15;;;;;;;7.03;1.10;;;;;;;13.11;99.49;101961.16;5243350;28;20274;-73
2022/10/19 07:54:48;;;;;;;7.60;1.10;;;;;;;12.89;98.41;101962.53;5225889;28;20401;-73
2022/10/19 07:57:18;;;;;;;6.53;1.10;;;;;;;12.95;97.75;101953.69;5224574;28;20040;-72
2022/10/19 07:59:48;;;;;;;5.63;0.85;;;;;;;13.06;98.33;101958.63;5242375;28;20449;-73
2022/10/19 08:02:19;;;;;;;7.43;1.35;;;;;;;12.76;97.65;101963.69;5243592;28;20031;-73
2022/10/19 08:04:49;;;;;;;4.72;0.90;;;;;;;12.77;98.29;101956.72;5243261;28;20059;-73
2022/10/19 08:07:20;;;;;;;7.60;1.08;;;;;;;12.79;98.92;101962.78;5243928;28;20111;-73
2022/10/19 08:09:50;;;;;;;7.75;1.10;;;;;;;12.77;92.93;101964.59;5243144;28;20028;-72
2022/10/19 08:12:20;;;;;;;9.50;1.10;;;;;;;12.75;92.96;101961.97;5243176;28;20067;-73
2022/10/19 08:14:52;;;;;;;8.23;1.17;;;;;;;12.87;93.87;101966.09;5243780;28;20031;-72
2022/10/19 08:17:23;;;;;;;6.38;0.93;;;;;;;13.12;93.51;101968.13;5243153;28;20055;-73
2022/10/19 08:19:53;;;;;;;8.85;1.40;;;;;;;13.08;92.43;101963.88;5243393;28;20337;-73
2022/10/19 08:22:23;;;;;;;7.65;1.60;;;;;;;13.04;91.54;101965.69;5243975;28;20024;-72
2022/10/19 08:24:54;;;;;;;9.55;1.35;;;;;;;13.15;90.50;101978.56;5243877;28;20036;-73
2022/10/19 08:27:24;;;;;;;4.43;0.88;;;;;;;13.08;90.52;101966.50;5243671;28;20556;-73
2022/10/19 08:29:54;;;;;;;7.10;1.00;;;;;;;13.00;90.00;101976.28;5243783;28;20029;-73
2022/10/19 08:32:25;;;;;;;5.53;0.98;;;;;;;12.90;89.38;101970.34;5243678;28;20117;-72
2022/10/19 08:34:55;;;;;;;8.82;1.30;;;;;;;13.09;91.02;101971.69;5243032;28;20081;-73
2022/10/19 08:37:25;;;;;;;9.32;1.20;;;;;;;12.91;85.15;101973.84;5242992;28;20043;-72
2022/10/19 08:39:56;;;;;;;8.02;1.20;;;;;;;12.96;87.53;101974.63;5243742;28;20272;-72
2022/10/19 08:42:42;;;;;;;9.20;1.50;;;;;;;13.08;84.56;101979.63;5243706;28;20028;-72
2022/10/19 08:45:18;;;;;;;7.88;0.80;;;;;;;13.10;83.91;101985.69;5243629;28;20021;-73
2022/10/19 08:48:17;;;;;;;5.10;1.05;;;;;;;13.00;84.35;101978.91;5238560;28;20023;-73
2022/10/19 08:50:48;;;;;;;9.15;1.25;;;;;;;12.75;85.73;101977.72;5241280;28;20562;-73
2022/10/19 08:53:49;;;;;;;4.85;0.95;;;;;;;13.17;84.90;101974.13;5238751;28;20036;-73
2022/10/19 08:56:30;;;;;;;7.80;1.20;;;;;;;13.09;85.35;101976.09;5237876;28;20024;-73
2022/10/19 08:59:00;;;;;;;9.68;1.38;;;;;;;12.85;84.23;101979.22;5224710;28;20353;-73
2022/10/19 09:01:51;;;;;;;9.85;1.50;;;;;;;13.03;84.61;101966.59;5242480;28;20533;-72
2022/10/19 09:04:40;;;;;;;6.72;1.00;;;;;;;13.22;85.51;101969.66;5238897;28;20032;-72
2022/10/19 09:07:10;;;;;;;6.60;1.10;;;;;;;13.19;83.96;101972.34;5241906;28;20036;-72
2022/10/19 09:09:47;;;;;;;7.23;1.03;;;;;;;13.05;82.47;101967.41;5242373;28;20028;-73
2022/10/19 09:12:30;;;;;;;8.95;1.13;;;;;;;12.97;83.75;101973.75;5243042;28;20755;-72
2022/10/19 09:15:10;;;;;;;5.28;1.20;;;;;;;12.91;83.20;101968.59;5242851;28;20052;-72
2022/10/19 09:17:40;;;;;;;9.32;1.25;;;;;;;13.01;84.26;101970.13;5242069;28;20040;-72
2022/10/19 09:20:43;;;;;;;7.75;1.38;;;;;;;13.26;81.95;101966.06;5224598;28;20027;-73
2022/10/19 09:23:33;;;;;;;9.02;1.17;;;;;;;13.37;82.75;101972.75;5227918;28;20047;-72
2022/10/19 09:26:11;;;;;;;8.32;1.00;;;;;;;13.44;79.56;101973.47;5240062;28;20131;-73
2022/10/19 09:28:54;;;;;;;7.72;1.13;;;;;;;13.60;78.99;101978.28;5240943;28;20500;-72
2022/10/19 09:31:32;;;;;;;6.40;1.60;;;;;;;13.84;79.53;101976.78;5241192;28;20042;-71
2022/10/19 09:34:15;;;;;;;15.80;1.60;;;;;;;14.04;77.32;101970.09;5240849;28;20421;-73
2022/10/19 09:36:51;;;;;;;7.15;1.33;;;;;;;13.89;75.32;101969.66;5242356;28;20043;-72
2022/10/19 09:39:22;;;;;;;;;;;;;;;14.06;73.73;101967.44;5239118;28;20117;-73
2022/10/19 09:42:03;;;;;;;7.32;1.20;;;;;;;13.81;76.56;101975.13;5242511;28;19970;-73
2022/10/19 09:44:34;;;;;;;5.70;1.05;;;;;;;13.55;77.35;101974.94;5242097;28;20073;-73
2022/10/19 09:47:28;;;;;;;7.45;1.40;;;;;;;13.73;77.30;101971.81;5241713;28;20032;-72
2022/10/19 09:50:15;;;;;;;6.03;1.08;;;;;;;13.93;78.04;101976.56;5231050;28;20064;-73
2022/10/19 09:52:47;;;;;;;10.80;1.38;;;;;;;13.81;76.95;101976.88;5242336;28;20020;-73
2022/10/19 09:55:26;;;;;;;6.82;1.90;;;;;;;13.54;77.18;101970.56;5241856;28;20055;-73
2022/10/19 09:58:12;;;;;;;7.13;1.50;;;;;;;13.55;75.93;101974.09;5220913;28;20123;-73
2022/10/19 10:00:53;;;;;;;6.85;1.73;;;;;;;13.51;76.11;101972.41;5223681;28;20025;-73
2022/10/19 10:03:38;;;;;;;9.43;1.73;;;;;;;14.13;76.52;101976.88;5238423;28;20036;-72
2022/10/19 10:06:13;;;;;;;11.52;1.73;;;;;;;13.72;75.24;101977.13;5242188;28;20042;-72
2022/10/19 10:08:57;;;;;;;7.07;1.73;;;;;;;13.89;76.44;101986.28;5239953;28;20036;-73
2022/10/19 10:11:34;;;;;;;4.88;1.75;;;;;;;13.84;79.05;101984.69;5239054;28;20040;-72
2022/10/19 10:14:30;;;;;;;8.80;1.70;;;;;;;14.22;77.56;101989.81;5241131;28;20478;-73
2022/10/19 10:17:20;;;;;;;5.87;1.80;;;;;;;14.22;75.90;101980.16;5235531;28;20035;-73
2022/10/19 10:19:57;;;;;;;5.32;1.58;;;;;;;14.71;75.98;101975.19;5218358;28;20047;-73
2022/10/19 10:22:33;;;;;;;8.27;2.13;;;;;;;14.84;76.10;101972.13;5237995;28;20518;-73
2022/10/19 10:25:12;;;;;;;7.93;1.70;;;;;;;14.56;74.76;101969.53;5239059;28;20064;-73
2022/10/19 10:27:54;;;;;;;5.40;1.63;;;;;;;14.79;72.11;101970.53;5220728;28;20397;-73
2022/10/19 10:30:28;;;;;;;4.22;1.70;;;;;;;14.55;72.93;101976.53;5237072;28;20143;-73
2022/10/19 10:32:58;;;;;;;7.80;1.63;;;;;;;14.73;73.02;101967.25;5237929;28;20020;-73
2022/10/19 10:35:36;;;;;;;4.97;1.50;;;;;;;14.80;73.54;101979.31;5221901;28;20604;-73
2022/10/19 10:38:16;;;;;;;7.13;1.98;;;;;;;14.85;73.59;101976.47;5240086;28;20062;-72
2022/10/19 10:40:53;;;;;;;10.43;2.00;;;;;;;14.79;73.47;101967.91;5239622;28;20509;-73
2022/10/19 10:43:30;;;;;;;4.53;1.70;;;;;;;14.41;73.68;101977.88;5236397;28;20032;-73
2022/10/19 10:46:23;;;;;;;5.90;1.95;;;;;;;14.25;77.45;101981.84;5239835;28;20508;-72
2022/10/19 10:48:58;;;;;;;6.40;1.60;;;;;;;14.49;76.34;101982.00;5235658;28;20035;-73
2022/10/19 10:52:18;;;;;;;7.47;1.80;;;;;;;14.71;73.09;101971.69;5239236;28;20025;-73
2022/10/19 10:55:09;;;;;;;7.72;1.80;;;;;;;14.89;72.57;101964.09;5231199;28;20059;-72
2022/10/19 10:57:45;;;;;;;4.53;1.52;;;;;;;14.97;74.75;101970.84;5238013;28;20028;-73
2022/10/19 11:00:19;;;;;;;8.20;1.70;;;;;;;14.50;73.58;101977.59;5237877;28;20123;-72
2022/10/19 11:03:08;;;;;;;7.63;1.85;;;;;;;14.41;73.10;101970.81;5238934;28;20029;-72
2022/10/19 11:05:54;;;;;;;8.23;1.83;;;;;;;13.86;74.82;101969.72;5239205;28;20048;-72
2022/10/19 11:08:37;;;;;;;8.20;1.67;;;;;;;13.69;74.59;101972.81;5235642;28;20028;-72
2022/10/19 11:11:18;;;;;;;4.43;1.38;;;;;;;13.96;75.56;101972.09;5239842;28;20482;-72
2022/10/19 11:13:58;;;;;;;9.05;1.67;;;;;;;13.68;77.70;101970.22;5236053;28;20424;-73
2022/10/19 11:16:34;;;;;;;4.55;1.60;;;;;;;13.64;77.75;101971.19;5220356;28;20043;-72
2022/10/19 11:19:11;;;;;;;;;;;;;;;13.81;76.59;101966.38;5238000;28;20027;-72
2022/10/19 11:21:48;;;;;;;6.07;1.67;;;;;;;13.88;78.13;101967.94;5239936;28;20485;-72
2022/10/19 11:24:54;;;;;;;5.63;1.63;;;;;;;13.75;78.87;101962.13;5237034;28;20037;-73
2022/10/19 11:27:53;;;;;;;8.85;1.70;;;;;;;13.57;78.60;101951.25;5221566;28;20124;-73
2022/10/19 11:30:25;;;;;;;8.20;1.65;;;;;;;13.52;78.93;101945.25;5241621;28;20044;-72
2022/10/19 11:33:24;;;;;;;3.08;1.30;;;;;;;13.33;78.69;101936.09;5242776;28;20394;-72
2022/10/19 11:36:00;;;;;;;8.18;1.77;;;;;;;13.41;81.12;101940.25;5243249;28;20106;-72
2022/10/19 11:38:41;;;;;;;4.72;1.38;;;;;;;13.58;78.72;101937.22;5224475;28;20228;-73
2022/10/19 11:41:33;;;;;;;5.43;1.35;;;;;;;13.51;80.37;101938.25;5241548;28;20044;-72
2022/10/19 11:44:45;;;;;;;4.97;1.50;;;;;;;13.55;79.78;101926.78;5240325;28;20035;-72
2022/10/19 11:47:28;;;;;;;8.60;1.50;;;;;;;13.72;80.68;101924.59;5221390;28;20035;-73
2022/10/19 11:50:26;;;;;;;6.80;1.23;;;;;;;13.41;79.10;101915.78;5239539;28;20025;-73
2022/10/19 11:53:11;;;;;;;4.30;1.30;;;;;;;13.47;77.98;101915.59;5239450;28;20048;-72
2022/10/19 11:56:03;;;;;;;3.83;1.10;;;;;;;13.61;79.63;101913.47;5238617;28;20029;-73